Hovedside
METAR-TAF:

METAR-TAF

Lufthavner :

Jönköping lufthavn

Jönköping, Sverige

breddegrad: 57-46N, lengdegrad: 014-05E, høyde over havet: 226 m

Gjeldene værobservasjon

Denne rapporten ble laget for 36 minutter siden, klokken 01:50 UTC
Vind 9 kt fra Sør-sørvest
Temperatur 4°C
Luftfuktighet 93%
Trykk 1023 hPa
Sikt 10 km eller mer

METAR: ESGJ 210150Z AUTO 21009KT 9999 BKN020/// 04/03 Q1023 R19/00//70

Tid: 03:26 (02:26 UTC)

Varsel

Denne rapporten ble laget for 2 timer og 56 minutter siden, klokken 23:30 UTC
Varsel gyldig fra 21. klokken 00 UTC til 21. klokken 02 UTC
Vind 10 kt fra Sørvest
Sikt 10 km eller mer
ingen skyer under 1500 m og ingen bygeskyer
Sannsynlighet 40%
fra 21. klokken 00 UTC til 21. klokken 02 UTC
Sikt: 2000 m
dis

TAF: ESGJ 202330Z 2100/2102 22010KT CAVOK PROB40 2100/2102 2000 BR

Værobservasjoner og værvarsel for over 4000 flyplasser (METAR- og TAF-rapporter).

Tilgjengelige stasjoner er representert av de røde og gule prikkene på kartet.

Hold musepekeren over prikken for å se navnet på stasjonen.

Klikk så for å se værobservasjoner og -varsler.

For å forandre kartet kan du klikke på den grønne knappen med svart kryss for å zoome inn, på den grønne knappen med strek for å zoome ut, eller på de grønne pilene for å se tilstøtende kart.


METAR-TAF: